Time;durP1;ratioP1;P1;durP2;ratioP2;P2;SDS_P1;SDS_P2;PMS_P1;PMS_P2;Temp;Humidity;BMP_temperature;BMP_pressure;BME280_temperature;BME280_humidity;BME280_pressure;Samples;Min_cycle;Max_cycle;Signal;HPM_P1;HPM_P2
2022/01/06 00:00:24;;;;;;;;;;;4.90;91.90;;;;;;5172092;27;19956;-66
2022/01/06 00:02:49;;;;;;;;;;;4.70;91.70;;;;;;5153687;27;19981;-66
2022/01/06 00:05:15;;;;;;;;;;;4.70;91.60;;;;;;5172701;27;19939;-66
2022/01/06 00:07:41;;;;;;;;;;;4.60;91.80;;;;;;5170869;27;20383;-66
2022/01/06 00:10:12;;;;;;;;;;;4.60;91.90;;;;;;5155021;27;20402;-66
2022/01/06 00:13:33;;;;;;;;;;;4.40;92.30;;;;;;5130880;27;19962;-66
2022/01/06 00:15:44;;;;;;;;;;;4.40;92.50;;;;;;5119822;28;19945;-66
2022/01/06 00:18:29;;;;;;;;;;;4.30;92.80;;;;;;5130853;28;19940;-66
2022/01/06 00:23:56;;;;;;;;;;;4.30;93.20;;;;;;5110735;28;20012;-68
2022/01/06 00:26:21;;;;;;;;;;;4.30;93.40;;;;;;5110722;28;19989;-68
2022/01/06 00:28:47;;;;;;;;;;;4.30;93.50;;;;;;5110945;28;19974;-66
2022/01/06 00:31:13;;;;;;;;;;;4.40;93.50;;;;;;5101563;28;19978;-66
2022/01/06 00:33:38;;;;;;;;;;;4.40;93.40;;;;;;5123165;28;19936;-66
2022/01/06 00:36:04;;;;;;;;;;;4.50;93.40;;;;;;5091304;28;20004;-65
2022/01/06 00:38:29;;;;;;;;;;;4.40;93.20;;;;;;5090167;28;19943;-65
2022/01/06 00:40:56;;;;;;;;;;;4.40;93.20;;;;;;5090116;28;19942;-66
2022/01/06 00:43:22;;;;;;;;;;;4.40;93.20;;;;;;5091199;28;19968;-66
2022/01/06 00:45:47;;;;;;;;;;;4.40;93.00;;;;;;5091086;28;20407;-66
2022/01/06 00:48:13;;;;;;;;;;;4.40;93.10;;;;;;5089988;28;19936;-66
2022/01/06 00:53:59;;;;;;;;;;;4.40;93.00;;;;;;5110209;27;20408;-66
2022/01/06 00:56:25;;;;;;;;;;;4.30;92.80;;;;;;5110922;28;20023;-66
2022/01/06 00:58:50;;;;;;;;;;;4.20;93.00;;;;;;5110861;28;19936;-66
2022/01/06 01:01:16;;;;;;;;;;;4.20;93.00;;;;;;5110784;28;19940;-66
2022/01/06 01:03:42;;;;;;;;;;;4.30;93.20;;;;;;5109207;28;19990;-66
2022/01/06 01:06:07;;;;;;;;;;;4.40;93.10;;;;;;5092855;28;19968;-66
2022/01/06 01:11:31;;;;;;;;;;;4.30;92.80;;;;;;5110970;27;19943;-66
2022/01/06 01:13:57;;;;;;;;;;;4.40;92.80;;;;;;5110187;28;19936;-66
2022/01/06 01:16:28;;;;;;;;;;;4.40;92.20;;;;;;5110781;28;19940;-66
2022/01/06 01:18:56;;;;;;;;;;;4.40;92.30;;;;;;5109169;28;19933;-65
2022/01/06 01:21:26;;;;;;;;;;;4.40;91.90;;;;;;5109081;28;20398;-66
2022/01/06 01:23:52;;;;;;;;;;;4.40;91.90;;;;;;5110753;28;19945;-66
2022/01/06 01:26:17;;;;;;;;;;;4.30;91.90;;;;;;5110700;28;19942;-66
2022/01/06 01:28:45;;;;;;;;;;;4.30;91.70;;;;;;5110561;28;20387;-65
2022/01/06 01:33:38;;;;;;;;;;;4.00;92.20;;;;;;5090473;28;19939;-66
2022/01/06 01:36:03;;;;;;;;;;;4.00;92.50;;;;;;5090472;28;19940;-66
2022/01/06 01:38:29;;;;;;;;;;;4.00;92.80;;;;;;5091371;28;20391;-66
2022/01/06 01:40:55;;;;;;;;;;;3.90;92.80;;;;;;5090105;28;19949;-65
2022/01/06 01:43:20;;;;;;;;;;;3.90;93.00;;;;;;5108237;28;19943;-65
2022/01/06 01:45:46;;;;;;;;;;;3.90;93.20;;;;;;5110374;28;19946;-66
2022/01/06 01:48:19;;;;;;;;;;;3.90;93.30;;;;;;5110310;28;20041;-66
2022/01/06 01:50:45;;;;;;;;;;;3.90;93.30;;;;;;5110216;28;20026;-66
2022/01/06 01:53:11;;;;;;;;;;;4.00;93.50;;;;;;5093089;28;20021;-66
2022/01/06 01:55:37;;;;;;;;;;;4.00;93.50;;;;;;5089844;28;19964;-66
2022/01/06 01:58:02;;;;;;;;;;;4.10;93.50;;;;;;5089790;28;20377;-66
2022/01/06 02:00:29;;;;;;;;;;;4.30;93.40;;;;;;5089765;28;19946;-66
2022/01/06 02:02:55;;;;;;;;;;;4.40;93.10;;;;;;5103878;28;19945;-66
2022/01/06 02:05:28;;;;;;;;;;;4.50;93.00;;;;;;5091454;28;20301;-66
2022/01/06 02:07:55;;;;;;;;;;;4.50;92.70;;;;;;5101767;28;19942;-66
2022/01/06 02:10:20;;;;;;;;;;;4.60;92.20;;;;;;5108303;28;20401;-66
2022/01/06 02:12:48;;;;;;;;;;;4.60;91.00;;;;;;5096496;28;19954;-66
2022/01/06 02:15:14;;;;;;;;;;;4.60;91.20;;;;;;5089443;28;19933;-66
2022/01/06 02:17:40;;;;;;;;;;;4.60;91.20;;;;;;5093584;28;19942;-66
2022/01/06 02:20:07;;;;;;;;;;;4.70;91.10;;;;;;5109926;28;20399;-65
2022/01/06 02:22:32;;;;;;;;;;;4.60;90.70;;;;;;5095496;28;20039;-66
2022/01/06 02:25:07;;;;;;;;;;;4.50;90.90;;;;;;5096347;28;19974;-66
2022/01/06 02:27:33;;;;;;;;;;;4.40;91.10;;;;;;5095905;28;19944;-66
2022/01/06 02:29:59;;;;;;;;;;;4.40;91.50;;;;;;5095936;28;19960;-66
2022/01/06 02:32:24;;;;;;;;;;;4.40;91.60;;;;;;5086033;28;19949;-66
2022/01/06 02:34:50;;;;;;;;;;;4.40;91.40;;;;;;5075607;28;19931;-66
2022/01/06 02:37:15;;;;;;;;;;;4.40;91.70;;;;;;5081595;28;20083;-65
2022/01/06 02:39:41;;;;;;;;;;;4.40;91.80;;;;;;5094013;28;19986;-66
2022/01/06 02:42:07;;;;;;;;;;;4.30;91.80;;;;;;5094407;28;20302;-66
2022/01/06 02:44:34;;;;;;;;;;;4.30;91.90;;;;;;5095672;28;20023;-66
2022/01/06 02:46:59;;;;;;;;;;;4.10;92.10;;;;;;5095606;28;19958;-66
2022/01/06 02:49:25;;;;;;;;;;;4.00;92.40;;;;;;5093747;28;20431;-66
2022/01/06 02:51:51;;;;;;;;;;;4.00;92.50;;;;;;5075831;28;19935;-66
2022/01/06 02:54:19;;;;;;;;;;;4.00;92.70;;;;;;5095175;28;20033;-66
2022/01/06 02:56:44;;;;;;;;;;;4.10;93.00;;;;;;5095451;28;20036;-66
2022/01/06 02:59:10;;;;;;;;;;;4.20;93.20;;;;;;5095408;28;19966;-66
2022/01/06 03:01:43;;;;;;;;;;;4.20;93.10;;;;;;5075632;28;19993;-65
2022/01/06 03:04:09;;;;;;;;;;;4.20;92.80;;;;;;5075338;28;19939;-66
2022/01/06 03:06:35;;;;;;;;;;;4.30;93.00;;;;;;5075058;28;20326;-66
2022/01/06 03:09:00;;;;;;;;;;;4.40;93.10;;;;;;5091465;28;20384;-66
2022/01/06 03:11:26;;;;;;;;;;;4.50;93.10;;;;;;5094959;28;20052;-66
2022/01/06 03:13:52;;;;;;;;;;;4.60;92.90;;;;;;5095130;28;19939;-66
2022/01/06 03:16:18;;;;;;;;;;;4.60;91.50;;;;;;5095097;28;20320;-66
2022/01/06 03:18:43;;;;;;;;;;;4.70;91.40;;;;;;5080465;28;19946;-66
2022/01/06 03:21:09;;;;;;;;;;;4.70;90.90;;;;;;5074731;28;19939;-66
2022/01/06 03:23:35;;;;;;;;;;;4.50;90.90;;;;;;5076020;28;20029;-66
2022/01/06 03:26:00;;;;;;;;;;;4.50;91.10;;;;;;5074645;28;20385;-66
2022/01/06 03:28:26;;;;;;;;;;;4.50;91.30;;;;;;5085915;28;19949;-66
2022/01/06 03:30:51;;;;;;;;;;;4.50;91.40;;;;;;5094712;28;20330;-66
2022/01/06 03:33:17;;;;;;;;;;;4.50;91.20;;;;;;5093730;28;20334;-66
2022/01/06 03:35:42;;;;;;;;;;;4.40;91.40;;;;;;5094759;28;19978;-66
2022/01/06 03:38:08;;;;;;;;;;;4.40;91.70;;;;;;5085548;28;19941;-66
2022/01/06 03:40:33;;;;;;;;;;;4.50;91.80;;;;;;5074392;28;19942;-66
2022/01/06 03:42:59;;;;;;;;;;;4.50;91.60;;;;;;5074297;28;19939;-66
2022/01/06 03:45:25;;;;;;;;;;;4.40;91.70;;;;;;5089931;28;20446;-66
2022/01/06 03:47:50;;;;;;;;;;;4.40;91.90;;;;;;5080161;28;19944;-66
2022/01/06 03:50:16;;;;;;;;;;;4.40;92.10;;;;;;5093121;28;19965;-65
2022/01/06 03:52:42;;;;;;;;;;;4.30;92.40;;;;;;5091113;28;19948;-66
2022/01/06 03:55:09;;;;;;;;;;;4.30;92.30;;;;;;5074094;28;20448;-66
2022/01/06 03:57:34;;;;;;;;;;;4.20;92.30;;;;;;5077494;28;19947;-66
2022/01/06 04:00:01;;;;;;;;;;;4.30;92.50;;;;;;5094180;28;19944;-65
2022/01/06 04:02:26;;;;;;;;;;;4.20;92.60;;;;;;5092912;28;19980;-66
2022/01/06 04:04:52;;;;;;;;;;;4.20;92.80;;;;;;5094447;28;20360;-66
2022/01/06 04:07:17;;;;;;;;;;;4.30;92.80;;;;;;5092647;28;19970;-66
2022/01/06 04:09:43;;;;;;;;;;;4.40;92.60;;;;;;5073495;28;20008;-66
2022/01/06 04:12:10;;;;;;;;;;;4.50;92.50;;;;;;5073796;28;20161;-66
2022/01/06 04:14:36;;;;;;;;;;;4.50;92.40;;;;;;5073745;28;19940;-66
2022/01/06 04:17:06;;;;;;;;;;;4.60;92.10;;;;;;5073673;28;20485;-66
2022/01/06 04:19:32;;;;;;;;;;;4.60;92.00;;;;;;5089717;28;20042;-66
2022/01/06 04:21:58;;;;;;;;;;;4.70;91.90;;;;;;5073888;28;20432;-66
2022/01/06 04:24:23;;;;;;;;;;;4.70;91.70;;;;;;5089993;28;19947;-66
2022/01/06 04:26:49;;;;;;;;;;;4.80;91.50;;;;;;5080678;28;19957;-66
2022/01/06 04:29:15;;;;;;;;;;;4.70;91.10;;;;;;5073382;28;20427;-66
2022/01/06 04:31:40;;;;;;;;;;;4.40;91.60;;;;;;5074009;28;20472;-66
2022/01/06 04:34:06;;;;;;;;;;;4.30;92.20;;;;;;5073379;28;19931;-66
2022/01/06 04:36:31;;;;;;;;;;;4.40;92.40;;;;;;5082811;28;19944;-66
2022/01/06 04:38:57;;;;;;;;;;;4.40;92.40;;;;;;5082403;28;20043;-66
2022/01/06 04:41:22;;;;;;;;;;;4.50;92.30;;;;;;5073369;28;19936;-66
2022/01/06 04:43:48;;;;;;;;;;;4.60;92.20;;;;;;5073267;28;19939;-66
2022/01/06 04:46:14;;;;;;;;;;;4.60;92.00;;;;;;5074099;28;19941;-66
2022/01/06 04:48:40;;;;;;;;;;;4.70;91.80;;;;;;5088936;28;19955;-66
2022/01/06 04:51:05;;;;;;;;;;;4.70;91.60;;;;;;5073121;28;20330;-66
2022/01/06 04:53:31;;;;;;;;;;;4.70;91.20;;;;;;5078090;28;19951;-66
2022/01/06 04:55:59;;;;;;;;;;;4.60;91.40;;;;;;5093359;28;20395;-66
2022/01/06 04:58:25;;;;;;;;;;;4.50;91.70;;;;;;5087133;28;20087;-66
2022/01/06 05:00:50;;;;;;;;;;;4.60;91.70;;;;;;5073139;28;20034;-66
2022/01/06 05:03:16;;;;;;;;;;;4.60;91.60;;;;;;5075532;28;19946;-66
2022/01/06 05:05:41;;;;;;;;;;;4.40;92.00;;;;;;5076957;28;19946;-66
2022/01/06 05:08:07;;;;;;;;;;;4.20;92.40;;;;;;5073958;28;20392;-66
2022/01/06 05:10:33;;;;;;;;;;;4.10;92.90;;;;;;5072755;28;19985;-66
2022/01/06 05:12:58;;;;;;;;;;;4.10;93.10;;;;;;5073029;28;19946;-66
2022/01/06 05:15:24;;;;;;;;;;;4.10;93.20;;;;;;5085167;28;19951;-66
2022/01/06 05:17:49;;;;;;;;;;;4.00;93.20;;;;;;5092301;28;19950;-66
2022/01/06 05:20:15;;;;;;;;;;;4.00;93.30;;;;;;5072923;28;20029;-65
2022/01/06 05:22:45;;;;;;;;;;;4.00;93.40;;;;;;5072913;28;19953;-65
2022/01/06 05:25:11;;;;;;;;;;;3.90;93.40;;;;;;5101458;28;19955;-66
2022/01/06 05:27:37;;;;;;;;;;;4.00;93.30;;;;;;5072781;28;19941;-65
2022/01/06 05:30:03;;;;;;;;;;;4.20;93.10;;;;;;5073165;28;19971;-66
2022/01/06 05:32:28;;;;;;;;;;;4.20;92.90;;;;;;5072751;28;20031;-65
2022/01/06 05:34:54;;;;;;;;;;;4.30;92.70;;;;;;5088463;28;20047;-65
2022/01/06 05:37:19;;;;;;;;;;;4.30;92.60;;;;;;5092953;28;19999;-65
2022/01/06 05:39:45;;;;;;;;;;;4.40;92.60;;;;;;5076290;28;19992;-66
2022/01/06 05:42:13;;;;;;;;;;;4.40;92.60;;;;;;5072691;28;19950;-66
2022/01/06 05:44:42;;;;;;;;;;;4.30;92.20;;;;;;5072648;28;19935;-66
2022/01/06 05:47:08;;;;;;;;;;;4.10;92.40;;;;;;5073748;28;20017;-66
2022/01/06 05:49:33;;;;;;;;;;;4.00;92.60;;;;;;5072562;28;20014;-65
2022/01/06 05:51:59;;;;;;;;;;;4.00;92.70;;;;;;5072589;28;20285;-65
2022/01/06 05:54:25;;;;;;;;;;;3.90;93.00;;;;;;5073854;28;20035;-66
2022/01/06 05:56:51;;;;;;;;;;;3.90;93.20;;;;;;5086291;28;19950;-66
2022/01/06 05:59:16;;;;;;;;;;;3.80;93.40;;;;;;5096699;28;20373;-66
2022/01/06 06:01:42;;;;;;;;;;;3.80;93.50;;;;;;5096578;28;19949;-66
2022/01/06 06:04:07;;;;;;;;;;;3.70;93.90;;;;;;5096763;28;19951;-66
2022/01/06 06:06:33;;;;;;;;;;;3.80;93.90;;;;;;5087019;28;19963;-66
2022/01/06 06:08:58;;;;;;;;;;;3.90;93.80;;;;;;5081425;28;19997;-66
2022/01/06 06:11:24;;;;;;;;;;;4.10;93.50;;;;;;5096144;28;20370;-66
2022/01/06 06:13:49;;;;;;;;;;;4.10;93.20;;;;;;5095075;28;19980;-65
2022/01/06 06:16:15;;;;;;;;;;;4.10;93.00;;;;;;5090224;28;20333;-66
2022/01/06 06:18:41;;;;;;;;;;;4.10;92.90;;;;;;5074731;28;19954;-66
2022/01/06 06:21:07;;;;;;;;;;;4.10;92.90;;;;;;5074673;28;19939;-66
2022/01/06 06:23:32;;;;;;;;;;;4.00;92.70;;;;;;5075864;28;19969;-65
2022/01/06 06:25:58;;;;;;;;;;;3.80;93.30;;;;;;5095921;28;19949;-66
2022/01/06 06:28:23;;;;;;;;;;;3.70;93.60;;;;;;5095962;28;20391;-66
2022/01/06 06:30:49;;;;;;;;;;;3.70;93.90;;;;;;5095977;28;19965;-66
2022/01/06 06:33:15;;;;;;;;;;;3.60;94.10;;;;;;5094654;28;19946;-66
2022/01/06 06:35:40;;;;;;;;;;;3.50;94.20;;;;;;5075765;28;20326;-66
2022/01/06 06:38:06;;;;;;;;;;;3.60;94.20;;;;;;5074319;28;19991;-65
2022/01/06 06:40:32;;;;;;;;;;;3.60;94.20;;;;;;5089754;28;20453;-66
2022/01/06 06:42:57;;;;;;;;;;;3.60;94.20;;;;;;5094245;28;19978;-66
2022/01/06 06:45:23;;;;;;;;;;;3.70;94.10;;;;;;5095714;28;20402;-65
2022/01/06 06:47:51;;;;;;;;;;;3.80;93.80;;;;;;5095671;28;19951;-66
2022/01/06 06:50:17;;;;;;;;;;;3.90;93.50;;;;;;5083255;28;19988;-66
2022/01/06 06:52:43;;;;;;;;;;;3.90;93.30;;;;;;5075339;28;20357;-65
2022/01/06 06:55:10;;;;;;;;;;;3.90;93.20;;;;;;5084285;28;19935;-65
2022/01/06 06:57:35;;;;;;;;;;;3.90;93.00;;;;;;5095784;28;19940;-66
2022/01/06 07:00:04;;;;;;;;;;;3.90;93.10;;;;;;5093660;28;19946;-66
2022/01/06 07:02:30;;;;;;;;;;;3.80;93.10;;;;;;5095439;28;19940;-66
2022/01/06 07:04:56;;;;;;;;;;;3.70;93.40;;;;;;5095054;28;19955;-66
2022/01/06 07:07:21;;;;;;;;;;;3.60;93.70;;;;;;5075013;28;19947;-66
2022/01/06 07:09:47;;;;;;;;;;;3.60;94.00;;;;;;5078499;28;19974;-66
2022/01/06 07:12:12;;;;;;;;;;;3.60;94.10;;;;;;5085930;28;19951;-66
2022/01/06 07:14:38;;;;;;;;;;;3.60;94.10;;;;;;5073641;28;19951;-66
2022/01/06 07:17:03;;;;;;;;;;;3.60;94.10;;;;;;5074923;28;19946;-66
2022/01/06 07:19:29;;;;;;;;;;;3.60;94.20;;;;;;5074873;28;19989;-65
2022/01/06 07:21:54;;;;;;;;;;;3.60;94.10;;;;;;5081190;28;19935;-66
2022/01/06 07:24:20;;;;;;;;;;;3.70;94.00;;;;;;5095290;28;19997;-66
2022/01/06 07:26:45;;;;;;;;;;;3.90;93.80;;;;;;5076045;28;19938;-66
2022/01/06 07:29:11;;;;;;;;;;;4.00;93.50;;;;;;5074633;28;19951;-66
2022/01/06 07:31:37;;;;;;;;;;;4.00;93.30;;;;;;5075580;28;20011;-66
2022/01/06 07:34:02;;;;;;;;;;;4.00;93.20;;;;;;5074591;28;19945;-66
2022/01/06 07:36:28;;;;;;;;;;;4.00;93.10;;;;;;5082245;28;19954;-66
2022/01/06 07:38:53;;;;;;;;;;;4.10;92.80;;;;;;5075339;28;20360;-66
2022/01/06 07:41:19;;;;;;;;;;;3.90;92.60;;;;;;5087153;28;19947;-65
2022/01/06 07:43:44;;;;;;;;;;;3.80;92.80;;;;;;5094651;28;19940;-65
2022/01/06 07:46:10;;;;;;;;;;;3.80;93.20;;;;;;5094572;28;19999;-66
2022/01/06 07:49:17;;;;;;;;;;;3.70;93.30;;;;;;5078884;28;19946;-65
2022/01/06 07:51:24;;;;;;;;;;;3.70;93.30;;;;;;5073582;28;19970;-66
2022/01/06 07:53:51;;;;;;;;;;;3.70;93.50;;;;;;5074473;28;19935;-66
2022/01/06 07:56:16;;;;;;;;;;;3.70;93.40;;;;;;5082754;28;19937;-66
2022/01/06 07:58:42;;;;;;;;;;;3.60;93.50;;;;;;5094360;28;19941;-65
2022/01/06 08:01:08;;;;;;;;;;;3.60;93.60;;;;;;5094295;28;19951;-66
2022/01/06 08:03:34;;;;;;;;;;;3.70;93.50;;;;;;5094239;28;19956;-66
2022/01/06 08:06:00;;;;;;;;;;;3.70;93.60;;;;;;5086070;28;19940;-66
2022/01/06 08:08:25;;;;;;;;;;;3.80;93.70;;;;;;5073804;28;19997;-65
2022/01/06 08:10:51;;;;;;;;;;;3.90;93.70;;;;;;5074359;28;19947;-65
2022/01/06 08:13:16;;;;;;;;;;;4.00;93.70;;;;;;5081846;28;20460;-66
2022/01/06 08:15:42;;;;;;;;;;;4.10;93.50;;;;;;5094242;28;19936;-66
2022/01/06 08:18:07;;;;;;;;;;;4.10;93.30;;;;;;5093968;28;19970;-66
2022/01/06 08:20:35;;;;;;;;;;;4.10;93.20;;;;;;5093316;28;19946;-65
2022/01/06 08:23:01;;;;;;;;;;;4.10;93.30;;;;;;5087437;28;19943;-66
2022/01/06 08:25:26;;;;;;;;;;;4.10;93.40;;;;;;5073523;28;20355;-66
2022/01/06 08:27:52;;;;;;;;;;;4.20;93.40;;;;;;5073073;28;19939;-66
2022/01/06 08:30:18;;;;;;;;;;;4.30;93.00;;;;;;5073403;28;19934;-66
2022/01/06 08:32:43;;;;;;;;;;;4.30;92.90;;;;;;5076636;28;20334;-66
2022/01/06 08:35:09;;;;;;;;;;;4.40;92.70;;;;;;5093614;28;19959;-66
2022/01/06 08:37:34;;;;;;;;;;;4.50;92.70;;;;;;5093598;28;19945;-66
2022/01/06 08:40:00;;;;;;;;;;;4.70;92.20;;;;;;5093585;28;20037;-65
2022/01/06 08:42:26;;;;;;;;;;;4.90;92.00;;;;;;5088203;28;20030;-66
2022/01/06 08:44:51;;;;;;;;;;;5.00;91.30;;;;;;5093526;28;19943;-65
2022/01/06 08:47:17;;;;;;;;;;;5.20;90.70;;;;;;5093478;28;19939;-65
2022/01/06 08:49:42;;;;;;;;;;;5.30;90.10;;;;;;5093399;28;19961;-66
2022/01/06 08:56:41;;;;;;;;;;;5.30;89.90;;;;;;5102475;27;20407;-66
2022/01/06 08:59:07;;;;;;;;;;;5.20;90.00;;;;;;5090192;28;20031;-66
2022/01/06 09:07:58;;;;;;;;;;;5.20;89.50;;;;;;5110916;27;20308;-68
2022/01/06 09:10:25;;;;;;;;;;;5.20;90.00;;;;;;5110894;28;20525;-66
2022/01/06 09:12:51;;;;;;;;;;;5.20;90.20;;;;;;5102226;28;20080;-66
2022/01/06 09:15:17;;;;;;;;;;;5.40;90.00;;;;;;5090600;28;20030;-66
2022/01/06 09:17:42;;;;;;;;;;;5.40;90.00;;;;;;5090385;28;19999;-66
2022/01/06 09:20:08;;;;;;;;;;;5.50;89.80;;;;;;5090497;28;19956;-66
2022/01/06 09:22:34;;;;;;;;;;;5.50;89.60;;;;;;5103951;28;20135;-66
2022/01/06 09:25:00;;;;;;;;;;;5.70;89.40;;;;;;5110745;28;19966;-66
2022/01/06 09:27:25;;;;;;;;;;;5.80;88.70;;;;;;5099133;28;19955;-66
2022/01/06 09:29:52;;;;;;;;;;;5.80;88.30;;;;;;5088740;28;19983;-66
2022/01/06 09:32:18;;;;;;;;;;;5.70;88.60;;;;;;5102409;28;20040;-66
2022/01/06 09:34:43;;;;;;;;;;;5.70;89.20;;;;;;5110552;28;19942;-66
2022/01/06 09:37:09;;;;;;;;;;;5.70;89.20;;;;;;5110454;28;19942;-66
2022/01/06 09:39:34;;;;;;;;;;;5.80;89.30;;;;;;5110429;28;20300;-66
2022/01/06 09:42:00;;;;;;;;;;;5.80;88.20;;;;;;5098400;28;19948;-66
2022/01/06 09:44:26;;;;;;;;;;;5.90;87.70;;;;;;5090048;28;19979;-66
2022/01/06 09:46:52;;;;;;;;;;;6.00;87.90;;;;;;5089911;28;19963;-66
2022/01/06 09:49:18;;;;;;;;;;;6.30;88.00;;;;;;5089905;28;20467;-66
2022/01/06 09:51:44;;;;;;;;;;;6.40;87.70;;;;;;5099014;28;20083;-66
2022/01/06 09:54:10;;;;;;;;;;;6.60;86.70;;;;;;5110086;28;20316;-66
2022/01/06 09:56:36;;;;;;;;;;;6.70;86.80;;;;;;5103665;28;19941;-66
2022/01/06 09:59:01;;;;;;;;;;;6.90;86.40;;;;;;5089699;28;19957;-66
2022/01/06 10:01:27;;;;;;;;;;;7.10;85.90;;;;;;5095959;28;20419;-66
2022/01/06 10:03:52;;;;;;;;;;;7.10;85.30;;;;;;5110172;28;19937;-66
2022/01/06 10:06:25;;;;;;;;;;;7.20;84.70;;;;;;5109700;28;20391;-66
2022/01/06 10:08:52;;;;;;;;;;;7.10;84.80;;;;;;5109796;28;19972;-66
2022/01/06 10:11:19;;;;;;;;;;;7.30;85.30;;;;;;5108006;28;19997;-66
2022/01/06 10:13:53;;;;;;;;;;;7.40;84.30;;;;;;5108484;28;19944;-66
2022/01/06 10:16:19;;;;;;;;;;;7.40;83.40;;;;;;5109778;28;19972;-66
2022/01/06 10:19:04;;;;;;;;;;;7.40;84.00;;;;;;5099375;28;19939;-66
2022/01/06 10:21:32;;;;;;;;;;;7.50;83.30;;;;;;5089189;28;19991;-66
2022/01/06 10:23:59;;;;;;;;;;;7.60;83.10;;;;;;5075805;28;20023;-66
2022/01/06 10:26:25;;;;;;;;;;;7.70;82.00;;;;;;5079359;28;20047;-66
2022/01/06 10:28:51;;;;;;;;;;;7.80;81.10;;;;;;5094084;28;20374;-66
2022/01/06 10:31:18;;;;;;;;;;;7.90;81.80;;;;;;5095919;28;19968;-66
2022/01/06 10:33:43;;;;;;;;;;;7.90;80.50;;;;;;5096158;28;19948;-66
2022/01/06 10:36:09;;;;;;;;;;;8.00;79.40;;;;;;5094539;28;19946;-66
2022/01/06 10:38:35;;;;;;;;;;;8.00;78.50;;;;;;5094571;28;19964;-66
2022/01/06 10:41:15;;;;;;;;;;;8.00;78.10;;;;;;5075835;28;19956;-66
2022/01/06 10:43:41;;;;;;;;;;;7.90;79.50;;;;;;5075404;28;19954;-66
2022/01/06 10:46:07;;;;;;;;;;;7.90;79.00;;;;;;5074974;28;19976;-66
2022/01/06 10:48:33;;;;;;;;;;;7.90;77.60;;;;;;5075317;28;19944;-66
2022/01/06 10:51:00;;;;;;;;;;;7.90;76.90;;;;;;5093995;28;20048;-66
2022/01/06 10:53:26;;;;;;;;;;;8.10;76.70;;;;;;5077379;28;19947;-66
2022/01/06 10:55:51;;;;;;;;;;;8.10;77.00;;;;;;5075211;28;19950;-66
2022/01/06 10:58:17;;;;;;;;;;;8.20;78.00;;;;;;5090672;28;19948;-66
2022/01/06 11:00:44;;;;;;;;;;;8.20;78.40;;;;;;5095311;28;20470;-66
2022/01/06 11:03:09;;;;;;;;;;;8.30;78.10;;;;;;5080235;28;20041;-66
2022/01/06 11:05:36;;;;;;;;;;;8.40;77.70;;;;;;5074765;28;20375;-66
2022/01/06 11:08:02;;;;;;;;;;;8.60;76.70;;;;;;5087875;28;20415;-66
2022/01/06 11:10:27;;;;;;;;;;;8.80;75.40;;;;;;5095042;28;19940;-66
2022/01/06 11:12:53;;;;;;;;;;;9.00;76.90;;;;;;5082791;28;20082;-66
2022/01/06 11:15:19;;;;;;;;;;;9.10;77.30;;;;;;5074816;28;20423;-66
2022/01/06 11:17:46;;;;;;;;;;;9.20;74.60;;;;;;5085130;28;20489;-66
2022/01/06 11:20:12;;;;;;;;;;;9.20;70.60;;;;;;5095089;28;20045;-66
2022/01/06 11:22:47;;;;;;;;;;;9.30;70.20;;;;;;5086643;28;20048;-66
2022/01/06 11:25:13;;;;;;;;;;;9.20;66.30;;;;;;5074565;28;19936;-66
2022/01/06 11:27:38;;;;;;;;;;;9.30;63.30;;;;;;5075350;28;19955;-66
2022/01/06 11:30:12;;;;;;;;;;;9.40;67.60;;;;;;5073469;28;20306;-66
2022/01/06 11:32:41;;;;;;;;;;;9.70;65.80;;;;;;5078228;28;20492;-66
2022/01/06 11:35:11;;;;;;;;;;;9.90;64.50;;;;;;5094858;28;19947;-66
2022/01/06 11:37:39;;;;;;;;;;;10.10;65.40;;;;;;5085045;28;20003;-66
2022/01/06 11:40:05;;;;;;;;;;;10.40;64.20;;;;;;5074314;28;19944;-66
2022/01/06 11:42:31;;;;;;;;;;;10.70;63.20;;;;;;5080602;28;20321;-67
2022/01/06 11:44:58;;;;;;;;;;;10.90;60.20;;;;;;5083885;28;20049;-67
2022/01/06 11:47:29;;;;;;;;;;;11.20;61.10;;;;;;5072815;28;20438;-66
2022/01/06 11:50:05;;;;;;;;;;;11.40;59.10;;;;;;5074157;28;20324;-66
2022/01/06 11:52:30;;;;;;;;;;;11.60;56.10;;;;;;5086775;28;19982;-66
2022/01/06 11:54:56;;;;;;;;;;;12.00;57.50;;;;;;5074591;28;20393;-66
2022/01/06 11:57:42;;;;;;;;;;;12.60;55.10;;;;;;5075008;28;19939;-66
2022/01/06 12:00:13;;;;;;;;;;;13.00;54.70;;;;;;5080321;28;20003;-66
2022/01/06 12:02:39;;;;;;;;;;;13.30;52.50;;;;;;5094138;28;19944;-66
2022/01/06 12:05:05;;;;;;;;;;;13.90;51.50;;;;;;5094114;28;19964;-67
2022/01/06 12:07:30;;;;;;;;;;;14.60;50.80;;;;;;5091932;28;20023;-67
2022/01/06 12:10:02;;;;;;;;;;;14.90;50.10;;;;;;5073616;28;19974;-67
2022/01/06 12:12:31;;;;;;;;;;;15.60;47.90;;;;;;5074749;28;20312;-67
2022/01/06 12:15:09;;;;;;;;;;;16.30;42.90;;;;;;5073695;28;19996;-67
2022/01/06 12:17:34;;;;;;;;;;;16.80;40.60;;;;;;5075301;28;19942;-67
2022/01/06 12:20:00;;;;;;;;;;;17.20;39.50;;;;;;5093882;28;19991;-67
2022/01/06 12:22:27;;;;;;;;;;;17.50;38.50;;;;;;5093757;28;20030;-67
2022/01/06 12:24:59;;;;;;;;;;;17.60;39.60;;;;;;5093803;28;19948;-66
2022/01/06 12:27:25;;;;;;;;;;;17.30;40.50;;;;;;5092875;28;20435;-67
2022/01/06 12:29:51;;;;;;;;;;;16.90;39.40;;;;;;5073409;28;19945;-67
2022/01/06 12:32:18;;;;;;;;;;;16.50;39.60;;;;;;5072187;28;19944;-67
2022/01/06 12:34:50;;;;;;;;;;;16.20;40.20;;;;;;5073335;28;20306;-67
2022/01/06 12:37:23;;;;;;;;;;;16.40;40.70;;;;;;5071997;28;19948;-67
2022/01/06 12:39:48;;;;;;;;;;;17.10;39.50;;;;;;5073548;28;20099;-68
2022/01/06 12:42:14;;;;;;;;;;;17.80;37.80;;;;;;5073040;28;20426;-67
2022/01/06 12:44:40;;;;;;;;;;;18.30;36.50;;;;;;5090048;28;20055;-67
2022/01/06 12:47:05;;;;;;;;;;;19.00;34.00;;;;;;5093375;28;19973;-67
2022/01/06 12:49:31;;;;;;;;;;;19.40;34.20;;;;;;5075512;28;19957;-67
2022/01/06 12:51:57;;;;;;;;;;;19.30;36.00;;;;;;5073093;28;19942;-67
2022/01/06 12:54:23;;;;;;;;;;;19.40;34.20;;;;;;5073098;28;19949;-67
2022/01/06 12:56:53;;;;;;;;;;;19.80;32.70;;;;;;5073138;28;19952;-67
2022/01/06 12:59:33;;;;;;;;;;;19.50;32.90;;;;;;5088377;28;19950;-66
2022/01/06 13:01:59;;;;;;;;;;;18.80;32.70;;;;;;5091500;28;19950;-67
2022/01/06 13:04:27;;;;;;;;;;;18.10;33.90;;;;;;5091953;28;19986;-66
2022/01/06 13:09:37;;;;;;;;;;;18.00;35.20;;;;;;5088895;27;2016892;-67
2022/01/06 13:12:04;;;;;;;;;;;18.00;36.70;;;;;;5148443;27;19984;-67
2022/01/06 13:14:37;;;;;;;;;;;18.80;34.10;;;;;;5131433;28;19942;-67
2022/01/06 13:17:06;;;;;;;;;;;19.60;33.10;;;;;;5131441;28;20426;-67
2022/01/06 13:19:34;;;;;;;;;;;19.60;32.80;;;;;;5148632;27;20063;-67
2022/01/06 13:22:04;;;;;;;;;;;19.80;31.40;;;;;;5152032;27;20554;-67
2022/01/06 13:24:31;;;;;;;;;;;20.20;30.50;;;;;;5151948;27;19987;-67
2022/01/06 13:26:57;;;;;;;;;;;20.20;31.20;;;;;;5151310;27;19946;-67
2022/01/06 13:29:30;;;;;;;;;;;19.90;30.90;;;;;;5150914;27;19967;-67
2022/01/06 13:32:00;;;;;;;;;;;20.30;31.30;;;;;;5152011;27;20012;-67
2022/01/06 13:34:25;;;;;;;;;;;19.90;30.30;;;;;;5151771;27;19948;-67
2022/01/06 13:37:00;;;;;;;;;;;19.30;32.30;;;;;;5151695;27;20036;-67
2022/01/06 13:39:32;;;;;;;;;;;19.00;33.40;;;;;;5130968;28;19946;-67
2022/01/06 13:41:58;;;;;;;;;;;19.00;32.60;;;;;;5130930;28;19935;-66
2022/01/06 13:44:24;;;;;;;;;;;18.90;33.30;;;;;;5149924;27;19959;-67
2022/01/06 13:47:06;;;;;;;;;;;19.00;32.70;;;;;;5151535;27;19940;-67
2022/01/06 13:52:19;;;;;;;;;;;19.50;32.60;;;;;;5130819;28;19946;-67
2022/01/06 13:54:45;;;;;;;;;;;20.00;30.90;;;;;;5134860;27;20409;-66
2022/01/06 13:57:11;;;;;;;;;;;19.80;31.00;;;;;;5151301;27;19952;-67
2022/01/06 13:59:38;;;;;;;;;;;19.80;31.20;;;;;;5144191;27;19988;-67
2022/01/06 14:02:04;;;;;;;;;;;20.30;30.70;;;;;;5151236;27;20282;-67
2022/01/06 14:04:32;;;;;;;;;;;20.40;30.80;;;;;;5148890;27;19985;-67
2022/01/06 14:06:57;;;;;;;;;;;20.00;30.90;;;;;;5136243;27;19946;-66
2022/01/06 14:09:23;;;;;;;;;;;19.90;30.70;;;;;;5150762;27;19977;-66
2022/01/06 14:11:49;;;;;;;;;;;19.70;32.00;;;;;;5151033;27;20034;-66
2022/01/06 14:14:15;;;;;;;;;;;19.40;31.70;;;;;;5148831;27;20029;-67
2022/01/06 14:16:40;;;;;;;;;;;19.00;32.60;;;;;;5150623;27;20328;-66
2022/01/06 14:19:06;;;;;;;;;;;18.80;33.90;;;;;;5148048;27;20335;-67
2022/01/06 14:21:31;;;;;;;;;;;18.80;33.80;;;;;;5118644;27;20377;-67
2022/01/06 14:23:57;;;;;;;;;;;19.20;32.70;;;;;;5126006;27;19950;-67
2022/01/06 14:26:22;;;;;;;;;;;19.30;31.70;;;;;;5116391;28;20288;-67
2022/01/06 14:28:48;;;;;;;;;;;19.30;32.00;;;;;;5124162;27;20096;-67
2022/01/06 14:31:14;;;;;;;;;;;19.30;32.10;;;;;;5136901;27;20024;-67
2022/01/06 14:33:40;;;;;;;;;;;19.00;32.90;;;;;;5132012;27;19944;-67
2022/01/06 14:36:06;;;;;;;;;;;18.70;32.90;;;;;;5136793;27;19999;-67
2022/01/06 14:38:32;;;;;;;;;;;18.90;33.30;;;;;;5118351;27;20043;-67
2022/01/06 14:40:58;;;;;;;;;;;18.90;33.10;;;;;;5137010;27;19992;-67
2022/01/06 14:43:23;;;;;;;;;;;18.90;34.10;;;;;;5133985;27;20410;-66
2022/01/06 14:45:49;;;;;;;;;;;19.00;32.70;;;;;;5116007;28;20314;-66
2022/01/06 14:48:15;;;;;;;;;;;18.80;32.50;;;;;;5115922;28;19965;-66
2022/01/06 14:50:41;;;;;;;;;;;18.30;33.50;;;;;;5115901;28;19938;-66